sensor_id;sensor_type;location;lat;lon;timestamp;pressure;altitude;pressure_sealevel;temperature;humidity
21623;BME280;10973;46.706;12.340;2022-10-31T00:01:38;88235.25;;;9.28;56.53
21623;BME280;10973;46.706;12.340;2022-10-31T00:04:05;88236.44;;;9.30;56.63
21623;BME280;10973;46.706;12.340;2022-10-31T00:06:33;88233.47;;;9.32;56.45
21623;BME280;10973;46.706;12.340;2022-10-31T00:09:03;88239.06;;;9.30;56.30
21623;BME280;10973;46.706;12.340;2022-10-31T00:11:30;88234.06;;;9.25;56.41
21623;BME280;10973;46.706;12.340;2022-10-31T00:13:58;88233.56;;;9.20;56.38
21623;BME280;10973;46.706;12.340;2022-10-31T00:16:28;88238.75;;;9.16;56.75
21623;BME280;10973;46.706;12.340;2022-10-31T00:19:05;88238.69;;;9.13;56.66
21623;BME280;10973;46.706;12.340;2022-10-31T00:21:34;88239.69;;;9.08;56.61
21623;BME280;10973;46.706;12.340;2022-10-31T00:24:02;88234.75;;;9.07;56.42
21623;BME280;10973;46.706;12.340;2022-10-31T00:26:31;88239.16;;;9.03;56.63
21623;BME280;10973;46.706;12.340;2022-10-31T00:29:00;88235.78;;;9.02;56.53
21623;BME280;10973;46.706;12.340;2022-10-31T00:31:27;88234.16;;;8.98;56.62
21623;BME280;10973;46.706;12.340;2022-10-31T00:33:55;88240.13;;;8.95;56.66
21623;BME280;10973;46.706;12.340;2022-10-31T00:36:23;88228.41;;;8.92;56.40
21623;BME280;10973;46.706;12.340;2022-10-31T00:38:50;88233.56;;;8.89;56.46
21623;BME280;10973;46.706;12.340;2022-10-31T00:41:18;88233.81;;;8.84;56.44
21623;BME280;10973;46.706;12.340;2022-10-31T00:43:46;88227.03;;;8.83;56.68
21623;BME280;10973;46.706;12.340;2022-10-31T00:46:13;88229.56;;;8.79;56.55
21623;BME280;10973;46.706;12.340;2022-10-31T00:48:41;88229.56;;;8.79;56.71
21623;BME280;10973;46.706;12.340;2022-10-31T00:51:10;88231.78;;;8.77;56.39
21623;BME280;10973;46.706;12.340;2022-10-31T00:53:37;88232.13;;;8.76;56.47
21623;BME280;10973;46.706;12.340;2022-10-31T00:56:05;88231.94;;;8.69;56.69
21623;BME280;10973;46.706;12.340;2022-10-31T00:58:32;88235.00;;;8.71;56.66
21623;BME280;10973;46.706;12.340;2022-10-31T01:00:59;88234.22;;;8.70;56.66
21623;BME280;10973;46.706;12.340;2022-10-31T01:03:32;88222.88;;;8.66;56.55
21623;BME280;10973;46.706;12.340;2022-10-31T01:06:09;88228.03;;;8.63;56.66
21623;BME280;10973;46.706;12.340;2022-10-31T01:08:38;88226.44;;;8.58;56.66
21623;BME280;10973;46.706;12.340;2022-10-31T01:11:20;88220.75;;;8.56;56.64
21623;BME280;10973;46.706;12.340;2022-10-31T01:13:51;88228.22;;;8.54;56.56
21623;BME280;10973;46.706;12.340;2022-10-31T01:16:22;88225.91;;;8.52;56.63
21623;BME280;10973;46.706;12.340;2022-10-31T01:18:51;88222.06;;;8.50;56.70
21623;BME280;10973;46.706;12.340;2022-10-31T01:21:26;88222.06;;;8.50;56.85
21623;BME280;10973;46.706;12.340;2022-10-31T01:23:57;88222.19;;;8.53;57.27
21623;BME280;10973;46.706;12.340;2022-10-31T01:26:40;88225.47;;;8.50;57.18
21623;BME280;10973;46.706;12.340;2022-10-31T01:29:08;88229.22;;;8.49;57.17
21623;BME280;10973;46.706;12.340;2022-10-31T01:31:38;88226.25;;;8.51;57.11
21623;BME280;10973;46.706;12.340;2022-10-31T01:34:07;88223.63;;;8.51;57.41
21623;BME280;10973;46.706;12.340;2022-10-31T01:36:37;88224.28;;;8.48;57.29
21623;BME280;10973;46.706;12.340;2022-10-31T01:39:12;88213.78;;;8.48;57.31
21623;BME280;10973;46.706;12.340;2022-10-31T01:41:44;88214.47;;;8.45;57.69
21623;BME280;10973;46.706;12.340;2022-10-31T01:49:46;88217.09;;;8.45;57.52
21623;BME280;10973;46.706;12.340;2022-10-31T01:55:05;88203.00;;;8.37;57.62
21623;BME280;10973;46.706;12.340;2022-10-31T01:57:34;88203.78;;;8.38;57.50
21623;BME280;10973;46.706;12.340;2022-10-31T02:00:08;88211.22;;;8.36;57.29
21623;BME280;10973;46.706;12.340;2022-10-31T02:02:36;88204.09;;;8.36;57.50
21623;BME280;10973;46.706;12.340;2022-10-31T02:05:10;88204.44;;;8.35;57.27
21623;BME280;10973;46.706;12.340;2022-10-31T02:08:06;88202.16;;;8.33;57.26
21623;BME280;10973;46.706;12.340;2022-10-31T02:10:37;88197.56;;;8.30;57.16
21623;BME280;10973;46.706;12.340;2022-10-31T02:13:07;88196.81;;;8.30;57.25
21623;BME280;10973;46.706;12.340;2022-10-31T02:15:38;88191.22;;;8.31;57.30
21623;BME280;10973;46.706;12.340;2022-10-31T02:18:07;88189.34;;;8.32;57.48
21623;BME280;10973;46.706;12.340;2022-10-31T02:26:31;88192.09;;;8.23;57.29
21623;BME280;10973;46.706;12.340;2022-10-31T02:46:59;88185.28;;;8.07;57.91
21623;BME280;10973;46.706;12.340;2022-10-31T02:49:40;88188.66;;;8.07;57.88
21623;BME280;10973;46.706;12.340;2022-10-31T02:52:21;88187.91;;;8.07;57.79
21623;BME280;10973;46.706;12.340;2022-10-31T02:54:50;88190.88;;;8.05;57.72
21623;BME280;10973;46.706;12.340;2022-10-31T02:57:26;88189.69;;;8.03;57.67
21623;BME280;10973;46.706;12.340;2022-10-31T03:00:06;88188.16;;;8.02;57.59
21623;BME280;10973;46.706;12.340;2022-10-31T03:03:14;88186.53;;;7.97;57.60
21623;BME280;10973;46.706;12.340;2022-10-31T03:06:47;88184.59;;;7.94;57.67
21623;BME280;10973;46.706;12.340;2022-10-31T03:09:06;88184.59;;;7.94;57.98
21623;BME280;10973;46.706;12.340;2022-10-31T03:12:10;88192.44;;;7.94;57.78
21623;BME280;10973;46.706;12.340;2022-10-31T03:17:50;88196.50;;;7.91;57.66
21623;BME280;10973;46.706;12.340;2022-10-31T03:20:26;88189.72;;;7.90;57.53
21623;BME280;10973;46.706;12.340;2022-10-31T03:22:56;88197.59;;;7.90;57.55
21623;BME280;10973;46.706;12.340;2022-10-31T03:25:26;88188.09;;;7.86;57.50
21623;BME280;10973;46.706;12.340;2022-10-31T03:27:56;88196.72;;;7.86;57.45
21623;BME280;10973;46.706;12.340;2022-10-31T03:30:26;88199.28;;;7.83;57.60
21623;BME280;10973;46.706;12.340;2022-10-31T03:32:57;88192.50;;;7.82;57.77
21623;BME280;10973;46.706;12.340;2022-10-31T03:35:28;88198.41;;;7.79;57.61
21623;BME280;10973;46.706;12.340;2022-10-31T03:38:00;88196.09;;;7.77;57.54
21623;BME280;10973;46.706;12.340;2022-10-31T03:40:36;88195.25;;;7.73;57.46
21623;BME280;10973;46.706;12.340;2022-10-31T03:43:11;88196.34;;;7.72;57.40
21623;BME280;10973;46.706;12.340;2022-10-31T03:45:45;88194.72;;;7.68;57.41
21623;BME280;10973;46.706;12.340;2022-10-31T03:48:16;88198.09;;;7.68;57.38
21623;BME280;10973;46.706;12.340;2022-10-31T03:53:57;88201.84;;;7.67;57.73
21623;BME280;10973;46.706;12.340;2022-10-31T03:56:45;88194.28;;;7.66;58.00
21623;BME280;10973;46.706;12.340;2022-10-31T03:59:32;88196.81;;;7.62;58.19
21623;BME280;10973;46.706;12.340;2022-10-31T04:02:06;88203.25;;;7.65;58.04
21623;BME280;10973;46.706;12.340;2022-10-31T04:04:36;88202.16;;;7.66;57.76
21623;BME280;10973;46.706;12.340;2022-10-31T04:07:05;88193.84;;;7.64;57.82
21623;BME280;10973;46.706;12.340;2022-10-31T04:09:37;88196.06;;;7.62;58.02
21623;BME280;10973;46.706;12.340;2022-10-31T04:12:09;88196.38;;;7.60;57.87
21623;BME280;10973;46.706;12.340;2022-10-31T04:14:41;88199.44;;;7.62;57.91
21623;BME280;10973;46.706;12.340;2022-10-31T04:17:15;88207.66;;;7.61;57.78
21623;BME280;10973;46.706;12.340;2022-10-31T04:19:44;88203.06;;;7.58;57.90
21623;BME280;10973;46.706;12.340;2022-10-31T04:22:12;88203.06;;;7.58;58.15
21623;BME280;10973;46.706;12.340;2022-10-31T04:24:40;88198.91;;;7.57;58.41
21623;BME280;10973;46.706;12.340;2022-10-31T04:27:08;88199.25;;;7.55;58.29
21623;BME280;10973;46.706;12.340;2022-10-31T04:29:35;88200.66;;;7.53;58.31
21623;BME280;10973;46.706;12.340;2022-10-31T04:32:02;88194.66;;;7.52;58.28
21623;BME280;10973;46.706;12.340;2022-10-31T04:34:29;88194.22;;;7.50;58.23
21623;BME280;10973;46.706;12.340;2022-10-31T04:36:56;88193.91;;;7.52;58.50
21623;BME280;10973;46.706;12.340;2022-10-31T04:39:24;88198.38;;;7.51;58.38
21623;BME280;10973;46.706;12.340;2022-10-31T04:41:52;88198.38;;;7.51;58.36
21623;BME280;10973;46.706;12.340;2022-10-31T04:44:20;88195.00;;;7.51;58.45
21623;BME280;10973;46.706;12.340;2022-10-31T04:46:47;88197.63;;;7.51;58.35
21623;BME280;10973;46.706;12.340;2022-10-31T04:49:14;88191.50;;;7.47;58.34
21623;BME280;10973;46.706;12.340;2022-10-31T04:51:41;88189.97;;;7.46;58.40
21623;BME280;10973;46.706;12.340;2022-10-31T04:54:08;88196.31;;;7.45;58.37
21623;BME280;10973;46.706;12.340;2022-10-31T04:56:36;88188.13;;;7.46;58.33
21623;BME280;10973;46.706;12.340;2022-10-31T04:59:03;88189.19;;;7.45;58.36
21623;BME280;10973;46.706;12.340;2022-10-31T05:01:30;88195.97;;;7.46;58.44
21623;BME280;10973;46.706;12.340;2022-10-31T05:03:57;88195.63;;;7.48;58.28
21623;BME280;10973;46.706;12.340;2022-10-31T05:06:24;88189.53;;;7.44;58.15
21623;BME280;10973;46.706;12.340;2022-10-31T05:08:52;88196.63;;;7.43;58.32
21623;BME280;10973;46.706;12.340;2022-10-31T05:11:19;88196.53;;;7.40;58.55
21623;BME280;10973;46.706;12.340;2022-10-31T05:13:46;88187.13;;;7.39;58.35
21623;BME280;10973;46.706;12.340;2022-10-31T05:16:13;88197.19;;;7.37;58.04
21623;BME280;10973;46.706;12.340;2022-10-31T05:18:41;88195.69;;;7.36;58.14
21623;BME280;10973;46.706;12.340;2022-10-31T05:21:08;88192.94;;;7.32;58.15
21623;BME280;10973;46.706;12.340;2022-10-31T05:23:35;88192.94;;;7.32;58.15
21623;BME280;10973;46.706;12.340;2022-10-31T05:26:02;88188.47;;;7.33;57.99
21623;BME280;10973;46.706;12.340;2022-10-31T05:28:30;88197.00;;;7.30;58.37
21623;BME280;10973;46.706;12.340;2022-10-31T05:30:57;88196.56;;;7.28;58.39
21623;BME280;10973;46.706;12.340;2022-10-31T05:33:24;88202.13;;;7.26;58.44
21623;BME280;10973;46.706;12.340;2022-10-31T05:35:51;88201.38;;;7.26;58.09
21623;BME280;10973;46.706;12.340;2022-10-31T05:38:18;88200.94;;;7.24;58.27
21623;BME280;10973;46.706;12.340;2022-10-31T05:40:46;88205.09;;;7.25;58.53
21623;BME280;10973;46.706;12.340;2022-10-31T05:43:13;88196.03;;;7.22;58.54
21623;BME280;10973;46.706;12.340;2022-10-31T05:45:40;88202.03;;;7.22;58.63
21623;BME280;10973;46.706;12.340;2022-10-31T05:48:08;88201.28;;;7.22;58.34
21623;BME280;10973;46.706;12.340;2022-10-31T05:50:35;88200.06;;;7.19;58.41
21623;BME280;10973;46.706;12.340;2022-10-31T05:53:05;88195.56;;;7.20;58.21
21623;BME280;10973;46.706;12.340;2022-10-31T05:55:32;88202.25;;;7.17;58.21
21623;BME280;10973;46.706;12.340;2022-10-31T05:58:00;88198.88;;;7.17;58.25
21623;BME280;10973;46.706;12.340;2022-10-31T06:00:28;88204.88;;;7.17;58.71
21623;BME280;10973;46.706;12.340;2022-10-31T06:03:03;88203.44;;;7.20;58.76
21623;BME280;10973;46.706;12.340;2022-10-31T06:05:31;88205.31;;;7.19;58.74
21623;BME280;10973;46.706;12.340;2022-10-31T06:08:00;88200.38;;;7.18;58.83
21623;BME280;10973;46.706;12.340;2022-10-31T06:10:28;88203.91;;;7.22;59.03
21623;BME280;10973;46.706;12.340;2022-10-31T06:12:55;88207.94;;;7.19;58.99
21623;BME280;10973;46.706;12.340;2022-10-31T06:15:22;88204.63;;;7.22;58.93
21623;BME280;10973;46.706;12.340;2022-10-31T06:18:05;88205.41;;;7.23;58.95
21623;BME280;10973;46.706;12.340;2022-10-31T06:20:33;88208.69;;;7.20;59.10
21623;BME280;10973;46.706;12.340;2022-10-31T06:23:01;88206.19;;;7.24;59.29
21623;BME280;10973;46.706;12.340;2022-10-31T06:25:29;88215.59;;;7.25;59.05
21623;BME280;10973;46.706;12.340;2022-10-31T06:27:57;88216.75;;;7.27;59.19
21623;BME280;10973;46.706;12.340;2022-10-31T06:30:25;88214.13;;;7.27;59.21
21623;BME280;10973;46.706;12.340;2022-10-31T06:32:52;88214.13;;;7.27;59.25
21623;BME280;10973;46.706;12.340;2022-10-31T06:35:20;88219.06;;;7.29;59.52
21623;BME280;10973;46.706;12.340;2022-10-31T06:37:54;88213.81;;;7.29;59.34
21623;BME280;10973;46.706;12.340;2022-10-31T06:40:23;88210.09;;;7.30;59.47
21623;BME280;10973;46.706;12.340;2022-10-31T06:43:01;88212.41;;;7.31;59.52
21623;BME280;10973;46.706;12.340;2022-10-31T06:45:29;88211.41;;;7.36;59.57
21623;BME280;10973;46.706;12.340;2022-10-31T06:47:57;88214.91;;;7.40;59.76
21623;BME280;10973;46.706;12.340;2022-10-31T06:50:44;88216.88;;;7.43;59.60
21623;BME280;10973;46.706;12.340;2022-10-31T06:53:11;88212.47;;;7.47;59.64
21623;BME280;10973;46.706;12.340;2022-10-31T06:55:39;88206.56;;;7.50;59.74
21623;BME280;10973;46.706;12.340;2022-10-31T06:58:08;88208.66;;;7.56;59.82
21623;BME280;10973;46.706;12.340;2022-10-31T07:00:36;88214.41;;;7.62;59.85
21623;BME280;10973;46.706;12.340;2022-10-31T07:03:10;88213.00;;;7.64;59.99
21623;BME280;10973;46.706;12.340;2022-10-31T07:05:37;88216.47;;;7.68;59.81
21623;BME280;10973;46.706;12.340;2022-10-31T07:08:08;88212.84;;;7.73;59.96
21623;BME280;10973;46.706;12.340;2022-10-31T07:10:38;88208.91;;;7.79;60.01
21623;BME280;10973;46.706;12.340;2022-10-31T07:13:12;88206.81;;;7.84;60.00
21623;BME280;10973;46.706;12.340;2022-10-31T07:15:42;88210.41;;;7.92;60.03
21623;BME280;10973;46.706;12.340;2022-10-31T07:18:12;88215.84;;;7.99;60.07
21623;BME280;10973;46.706;12.340;2022-10-31T07:20:39;88216.03;;;8.06;60.14
21623;BME280;10973;46.706;12.340;2022-10-31T07:23:08;88214.25;;;8.10;60.33
21623;BME280;10973;46.706;12.340;2022-10-31T07:25:37;88216.38;;;8.20;60.09
21623;BME280;10973;46.706;12.340;2022-10-31T07:28:05;88222.97;;;8.26;60.16
21623;BME280;10973;46.706;12.340;2022-10-31T07:30:33;88212.66;;;8.33;60.28
21623;BME280;10973;46.706;12.340;2022-10-31T07:33:00;88218.53;;;8.42;60.11
21623;BME280;10973;46.706;12.340;2022-10-31T07:35:29;88218.00;;;8.52;60.14
21623;BME280;10973;46.706;12.340;2022-10-31T07:37:56;88214.91;;;8.63;60.37
21623;BME280;10973;46.706;12.340;2022-10-31T07:40:25;88217.44;;;8.75;60.16
21623;BME280;10973;46.706;12.340;2022-10-31T07:42:54;88207.53;;;8.84;60.27
21623;BME280;10973;46.706;12.340;2022-10-31T07:45:22;88211.63;;;8.97;59.95
21623;BME280;10973;46.706;12.340;2022-10-31T07:47:53;88214.13;;;9.09;60.03
21623;BME280;10973;46.706;12.340;2022-10-31T07:50:30;88207.72;;;9.22;60.30
21623;BME280;10973;46.706;12.340;2022-10-31T07:53:04;88206.06;;;9.33;60.18
21623;BME280;10973;46.706;12.340;2022-10-31T07:55:32;88202.22;;;9.46;60.19
21623;BME280;10973;46.706;12.340;2022-10-31T07:58:19;88205.84;;;9.57;60.03
21623;BME280;10973;46.706;12.340;2022-10-31T08:00:47;88209.81;;;9.67;60.16
21623;BME280;10973;46.706;12.340;2022-10-31T08:03:18;88200.53;;;9.73;60.04
21623;BME280;10973;46.706;12.340;2022-10-31T08:05:46;88191.34;;;9.82;60.34
21623;BME280;10973;46.706;12.340;2022-10-31T08:08:14;88196.06;;;9.92;60.49
21623;BME280;10973;46.706;12.340;2022-10-31T08:10:41;88198.16;;;10.02;60.61
21623;BME280;10973;46.706;12.340;2022-10-31T08:13:13;88191.25;;;10.14;60.74
21623;BME280;10973;46.706;12.340;2022-10-31T08:15:41;88187.28;;;10.23;60.92
21623;BME280;10973;46.706;12.340;2022-10-31T08:18:13;88182.22;;;10.34;60.65
21623;BME280;10973;46.706;12.340;2022-10-31T08:20:43;88182.84;;;10.46;60.43
21623;BME280;10973;46.706;12.340;2022-10-31T08:23:12;88183.44;;;10.59;60.85
21623;BME280;10973;46.706;12.340;2022-10-31T08:25:39;88179.81;;;10.67;60.62
21623;BME280;10973;46.706;12.340;2022-10-31T08:28:09;88178.88;;;10.79;60.28
21623;BME280;10973;46.706;12.340;2022-10-31T08:30:38;88171.44;;;10.84;59.99
21623;BME280;10973;46.706;12.340;2022-10-31T08:33:16;88180.28;;;10.95;60.30
21623;BME280;10973;46.706;12.340;2022-10-31T08:35:44;88174.03;;;11.03;60.91
21623;BME280;10973;46.706;12.340;2022-10-31T08:38:12;88170.03;;;11.13;61.26
21623;BME280;10973;46.706;12.340;2022-10-31T08:40:40;88162.28;;;11.23;61.00
21623;BME280;10973;46.706;12.340;2022-10-31T08:43:16;88157.09;;;11.30;61.23
21623;BME280;10973;46.706;12.340;2022-10-31T08:45:48;88162.59;;;11.44;61.38
21623;BME280;10973;46.706;12.340;2022-10-31T08:48:17;88155.53;;;11.52;61.16
21623;BME280;10973;46.706;12.340;2022-10-31T08:50:45;88158.03;;;11.68;61.17
21623;BME280;10973;46.706;12.340;2022-10-31T08:53:15;88151.34;;;11.74;60.78
21623;BME280;10973;46.706;12.340;2022-10-31T08:55:44;88152.59;;;11.83;60.82
21623;BME280;10973;46.706;12.340;2022-10-31T08:58:18;88151.97;;;11.93;59.97
21623;BME280;10973;46.706;12.340;2022-10-31T09:00:47;88148.72;;;12.07;59.40
21623;BME280;10973;46.706;12.340;2022-10-31T09:03:24;88151.47;;;12.14;59.37
21623;BME280;10973;46.706;12.340;2022-10-31T09:05:56;88145.88;;;12.23;58.94
21623;BME280;10973;46.706;12.340;2022-10-31T09:08:25;88138.81;;;12.30;58.43
21623;BME280;10973;46.706;12.340;2022-10-31T09:10:56;88143.81;;;12.39;58.27
21623;BME280;10973;46.706;12.340;2022-10-31T09:13:23;88134.47;;;12.48;57.57
21623;BME280;10973;46.706;12.340;2022-10-31T09:15:56;88129.69;;;12.61;56.62
21623;BME280;10973;46.706;12.340;2022-10-31T09:18:24;88130.88;;;12.67;55.44
21623;BME280;10973;46.706;12.340;2022-10-31T09:20:51;88136.63;;;12.76;54.98
21623;BME280;10973;46.706;12.340;2022-10-31T09:23:22;88131.81;;;12.85;55.41
21623;BME280;10973;46.706;12.340;2022-10-31T09:25:52;88132.63;;;12.93;56.38
21623;BME280;10973;46.706;12.340;2022-10-31T09:28:22;88137.63;;;13.05;56.14
21623;BME280;10973;46.706;12.340;2022-10-31T09:30:52;88123.03;;;13.18;55.79
21623;BME280;10973;46.706;12.340;2022-10-31T09:33:20;88123.47;;;13.27;56.20
21623;BME280;10973;46.706;12.340;2022-10-31T09:35:48;88125.41;;;13.30;57.23
21623;BME280;10973;46.706;12.340;2022-10-31T09:38:20;88123.97;;;13.39;57.49
21623;BME280;10973;46.706;12.340;2022-10-31T09:41:23;88127.81;;;13.49;57.43
21623;BME280;10973;46.706;12.340;2022-10-31T09:44:35;88119.50;;;13.54;57.27
21623;BME280;10973;46.706;12.340;2022-10-31T09:50:14;88134.38;;;13.69;55.61
21623;BME280;10973;46.706;12.340;2022-10-31T09:53:00;88132.16;;;13.78;55.46
21623;BME280;10973;46.706;12.340;2022-10-31T09:55:43;88126.91;;;13.89;55.38
21623;BME280;10973;46.706;12.340;2022-10-31T09:58:27;88123.56;;;13.99;55.18
21623;BME280;10973;46.706;12.340;2022-10-31T10:01:00;88120.47;;;13.90;54.66
21623;BME280;10973;46.706;12.340;2022-10-31T10:03:46;88118.59;;;13.97;53.22
21623;BME280;10973;46.706;12.340;2022-10-31T10:06:29;88129.63;;;14.06;53.26
21623;BME280;10973;46.706;12.340;2022-10-31T10:09:00;88121.34;;;14.11;53.92
21623;BME280;10973;46.706;12.340;2022-10-31T10:18:18;88117.97;;;14.25;53.94
21623;BME280;10973;46.706;12.340;2022-10-31T10:21:31;88115.38;;;14.36;53.75
21623;BME280;10973;46.706;12.340;2022-10-31T10:27:11;88113.16;;;14.45;53.62
21623;BME280;10973;46.706;12.340;2022-10-31T10:30:21;88109.78;;;14.55;52.80
21623;BME280;10973;46.706;12.340;2022-10-31T10:32:59;88104.09;;;14.60;52.79
21623;BME280;10973;46.706;12.340;2022-10-31T10:35:32;88114.34;;;14.68;53.86
21623;BME280;10973;46.706;12.340;2022-10-31T10:38:17;88112.09;;;14.77;54.07
21623;BME280;10973;46.706;12.340;2022-10-31T10:40:47;88104.53;;;14.83;54.01
21623;BME280;10973;46.706;12.340;2022-10-31T10:43:34;88106.06;;;14.91;54.36
21623;BME280;10973;46.706;12.340;2022-10-31T10:46:43;88101.91;;;15.00;54.27
21623;BME280;10973;46.706;12.340;2022-10-31T10:58:02;88091.28;;;15.32;53.72
21623;BME280;10973;46.706;12.340;2022-10-31T11:00:46;88095.47;;;15.37;54.90
21623;BME280;10973;46.706;12.340;2022-10-31T11:03:16;88084.47;;;15.42;53.79
21623;BME280;10973;46.706;12.340;2022-10-31T11:05:57;88083.31;;;15.50;53.46
21623;BME280;10973;46.706;12.340;2022-10-31T11:08:35;88083.34;;;15.60;53.38
21623;BME280;10973;46.706;12.340;2022-10-31T11:11:09;88076.84;;;15.68;52.83
21623;BME280;10973;46.706;12.340;2022-10-31T11:13:42;88079.13;;;15.81;52.84
21623;BME280;10973;46.706;12.340;2022-10-31T11:16:32;88072.25;;;15.94;54.01
21623;BME280;10973;46.706;12.340;2022-10-31T11:21:44;88061.66;;;16.70;51.49
21623;BME280;10973;46.706;12.340;2022-10-31T11:24:24;88061.41;;;17.12;49.34
21623;BME280;10973;46.706;12.340;2022-10-31T11:27:09;88056.06;;;17.63;47.09
21623;BME280;10973;46.706;12.340;2022-10-31T11:29:38;88061.56;;;18.20;45.78
21623;BME280;10973;46.706;12.340;2022-10-31T11:32:20;88055.03;;;18.89;44.40
21623;BME280;10973;46.706;12.340;2022-10-31T11:34:56;88048.66;;;19.59;41.36
21623;BME280;10973;46.706;12.340;2022-10-31T11:37:29;88038.09;;;20.18;39.03
21623;BME280;10973;46.706;12.340;2022-10-31T11:40:04;88044.94;;;20.62;38.20
21623;BME280;10973;46.706;12.340;2022-10-31T11:42:41;88029.69;;;20.95;38.05
21623;BME280;10973;46.706;12.340;2022-10-31T11:47:50;88030.03;;;21.81;35.65
21623;BME280;10973;46.706;12.340;2022-10-31T11:50:33;88022.38;;;22.28;36.90
21623;BME280;10973;46.706;12.340;2022-10-31T11:53:02;88025.78;;;22.57;36.38
21623;BME280;10973;46.706;12.340;2022-10-31T11:55:37;88021.66;;;22.68;35.83
21623;BME280;10973;46.706;12.340;2022-10-31T11:58:20;88011.59;;;22.85;35.53
21623;BME280;10973;46.706;12.340;2022-10-31T12:00:54;88007.00;;;22.98;35.65
21623;BME280;10973;46.706;12.340;2022-10-31T12:06:39;87992.25;;;23.03;36.52
21623;BME280;10973;46.706;12.340;2022-10-31T12:08:46;87990.94;;;22.95;36.01
21623;BME280;10973;46.706;12.340;2022-10-31T12:11:46;87993.53;;;22.86;35.74
21623;BME280;10973;46.706;12.340;2022-10-31T12:17:44;87990.09;;;22.56;37.93
21623;BME280;10973;46.706;12.340;2022-10-31T12:32:27;87968.25;;;21.68;39.19
21623;BME280;10973;46.706;12.340;2022-10-31T12:51:12;87964.59;;;20.62;41.07
21623;BME280;10973;46.706;12.340;2022-10-31T13:02:00;87954.44;;;19.52;44.13
21623;BME280;10973;46.706;12.340;2022-10-31T13:08:06;87953.56;;;19.12;43.66
21623;BME280;10973;46.706;12.340;2022-10-31T13:10:52;87951.47;;;19.00;44.03
21623;BME280;10973;46.706;12.340;2022-10-31T13:13:40;87948.97;;;18.89;44.45
21623;BME280;10973;46.706;12.340;2022-10-31T13:16:21;87951.09;;;18.75;44.70
21623;BME280;10973;46.706;12.340;2022-10-31T13:18:57;87947.41;;;18.65;44.87
21623;BME280;10973;46.706;12.340;2022-10-31T13:22:03;87948.34;;;18.55;44.17
21623;BME280;10973;46.706;12.340;2022-10-31T13:25:09;87941.59;;;18.43;44.22
21623;BME280;10973;46.706;12.340;2022-10-31T13:28:01;87935.25;;;18.34;45.42
21623;BME280;10973;46.706;12.340;2022-10-31T13:30:33;87941.78;;;18.29;46.43
21623;BME280;10973;46.706;12.340;2022-10-31T13:36:38;87938.94;;;18.13;46.48
21623;BME280;10973;46.706;12.340;2022-10-31T13:42:45;87939.16;;;17.96;46.80
21623;BME280;10973;46.706;12.340;2022-10-31T13:45:20;87930.13;;;17.90;47.07
21623;BME280;10973;46.706;12.340;2022-10-31T13:48:19;87941.22;;;17.85;47.37
21623;BME280;10973;46.706;12.340;2022-10-31T13:51:00;87937.47;;;17.78;47.61
21623;BME280;10973;46.706;12.340;2022-10-31T13:53:39;87932.19;;;17.75;47.68
21623;BME280;10973;46.706;12.340;2022-10-31T13:56:25;87932.59;;;17.73;48.28
21623;BME280;10973;46.706;12.340;2022-10-31T13:59:15;87937.22;;;17.69;48.75
21623;BME280;10973;46.706;12.340;2022-10-31T14:01:55;87938.75;;;17.67;48.40
21623;BME280;10973;46.706;12.340;2022-10-31T14:04:27;87937.63;;;17.64;48.80
21623;BME280;10973;46.706;12.340;2022-10-31T14:07:05;87935.34;;;17.63;48.30
21623;BME280;10973;46.706;12.340;2022-10-31T14:12:39;87941.16;;;17.54;48.14
21623;BME280;10973;46.706;12.340;2022-10-31T14:15:22;87935.06;;;17.54;45.12
21623;BME280;10973;46.706;12.340;2022-10-31T14:18:07;87930.84;;;17.60;44.59
21623;BME280;10973;46.706;12.340;2022-10-31T14:20:46;87924.34;;;17.61;45.27
21623;BME280;10973;46.706;12.340;2022-10-31T14:23:38;87929.22;;;17.66;45.09
21623;BME280;10973;46.706;12.340;2022-10-31T14:28:59;87929.31;;;17.59;46.55
21623;BME280;10973;46.706;12.340;2022-10-31T14:31:39;87936.22;;;17.53;47.12
21623;BME280;10973;46.706;12.340;2022-10-31T14:34:36;87931.72;;;17.46;47.66
21623;BME280;10973;46.706;12.340;2022-10-31T14:52:05;87922.22;;;17.04;49.91
21623;BME280;10973;46.706;12.340;2022-10-31T14:54:45;87921.09;;;17.02;50.06
21623;BME280;10973;46.706;12.340;2022-10-31T14:57:21;87914.34;;;16.94;50.38
21623;BME280;10973;46.706;12.340;2022-10-31T14:59:53;87921.19;;;16.91;50.65
21623;BME280;10973;46.706;12.340;2022-10-31T15:03:11;87916.69;;;16.85;50.86
21623;BME280;10973;46.706;12.340;2022-10-31T15:05:51;87916.34;;;16.79;51.08
21623;BME280;10973;46.706;12.340;2022-10-31T15:08:33;87913.00;;;16.72;51.06
21623;BME280;10973;46.706;12.340;2022-10-31T15:11:23;87916.84;;;16.67;51.43
21623;BME280;10973;46.706;12.340;2022-10-31T15:13:56;87915.38;;;16.63;51.61
21623;BME280;10973;46.706;12.340;2022-10-31T15:16:36;87915.41;;;16.56;51.40
21623;BME280;10973;46.706;12.340;2022-10-31T15:19:11;87911.63;;;16.50;51.99
21623;BME280;10973;46.706;12.340;2022-10-31T15:21:44;87909.41;;;16.41;52.45
21623;BME280;10973;46.706;12.340;2022-10-31T15:24:15;87909.81;;;16.36;52.25
21623;BME280;10973;46.706;12.340;2022-10-31T15:26:47;87901.50;;;16.30;52.23
21623;BME280;10973;46.706;12.340;2022-10-31T15:29:19;87905.34;;;16.26;52.05
21623;BME280;10973;46.706;12.340;2022-10-31T15:31:52;87914.50;;;16.21;51.57
21623;BME280;10973;46.706;12.340;2022-10-31T15:34:42;87917.16;;;16.18;50.08
21623;BME280;10973;46.706;12.340;2022-10-31T15:37:16;87908.03;;;16.15;48.99
21623;BME280;10973;46.706;12.340;2022-10-31T15:39:45;87911.50;;;16.12;48.35
21623;BME280;10973;46.706;12.340;2022-10-31T15:42:43;87915.34;;;16.08;48.04
21623;BME280;10973;46.706;12.340;2022-10-31T15:47:37;87909.25;;;16.04;47.50
21623;BME280;10973;46.706;12.340;2022-10-31T15:50:19;87911.59;;;15.98;47.61
21623;BME280;10973;46.706;12.340;2022-10-31T15:52:48;87918.44;;;15.96;46.92